sensor_id;sensor_type;location;lat;lon;timestamp;temperature;humidity
78550;DHT22;68091;52.130;5.570;2023-04-25T00:00:15;5.80;99.90
78550;DHT22;68091;52.130;5.570;2023-04-25T00:06:16;5.50;99.90
78550;DHT22;68091;52.130;5.570;2023-04-25T00:08:50;5.40;99.90
78550;DHT22;68091;52.130;5.570;2023-04-25T00:11:17;5.40;99.90
78550;DHT22;68091;52.130;5.570;2023-04-25T00:14:03;4.60;99.90
78550;DHT22;68091;52.130;5.570;2023-04-25T00:16:30;5.30;99.90
78550;DHT22;68091;52.130;5.570;2023-04-25T00:18:59;5.30;99.90
78550;DHT22;68091;52.130;5.570;2023-04-25T00:21:25;5.20;99.90
78550;DHT22;68091;52.130;5.570;2023-04-25T00:23:52;5.20;99.90
78550;DHT22;68091;52.130;5.570;2023-04-25T00:26:18;5.20;99.90
78550;DHT22;68091;52.130;5.570;2023-04-25T00:28:44;5.20;99.90
78550;DHT22;68091;52.130;5.570;2023-04-25T00:31:10;5.20;99.90
78550;DHT22;68091;52.130;5.570;2023-04-25T00:33:38;5.20;99.90
78550;DHT22;68091;52.130;5.570;2023-04-25T00:36:05;5.10;99.90
78550;DHT22;68091;52.130;5.570;2023-04-25T00:38:40;5.10;99.90
78550;DHT22;68091;52.130;5.570;2023-04-25T00:41:15;5.10;99.90
78550;DHT22;68091;52.130;5.570;2023-04-25T00:43:44;5.10;99.90
78550;DHT22;68091;52.130;5.570;2023-04-25T00:46:32;5.10;99.90
78550;DHT22;68091;52.130;5.570;2023-04-25T00:49:10;5.20;99.90
78550;DHT22;68091;52.130;5.570;2023-04-25T00:51:47;5.20;99.90
78550;DHT22;68091;52.130;5.570;2023-04-25T00:54:32;5.10;99.90
78550;DHT22;68091;52.130;5.570;2023-04-25T00:57:01;5.10;99.90
78550;DHT22;68091;52.130;5.570;2023-04-25T00:59:27;4.80;99.90
78550;DHT22;68091;52.130;5.570;2023-04-25T01:01:55;5.10;99.90
78550;DHT22;68091;52.130;5.570;2023-04-25T01:04:21;5.10;99.90
78550;DHT22;68091;52.130;5.570;2023-04-25T01:06:48;5.10;99.90
78550;DHT22;68091;52.130;5.570;2023-04-25T01:09:14;5.10;99.90
78550;DHT22;68091;52.130;5.570;2023-04-25T01:11:40;5.20;99.90
78550;DHT22;68091;52.130;5.570;2023-04-25T01:14:06;5.20;99.90
78550;DHT22;68091;52.130;5.570;2023-04-25T01:16:32;5.20;99.90
78550;DHT22;68091;52.130;5.570;2023-04-25T01:18:58;5.20;99.90
78550;DHT22;68091;52.130;5.570;2023-04-25T01:21:25;5.20;99.90
78550;DHT22;68091;52.130;5.570;2023-04-25T01:23:53;5.20;99.90
78550;DHT22;68091;52.130;5.570;2023-04-25T01:26:19;5.20;99.90
78550;DHT22;68091;52.130;5.570;2023-04-25T01:28:47;5.20;99.90
78550;DHT22;68091;52.130;5.570;2023-04-25T01:31:17;5.10;99.90
78550;DHT22;68091;52.130;5.570;2023-04-25T01:33:43;5.10;99.90
78550;DHT22;68091;52.130;5.570;2023-04-25T01:36:09;5.00;99.90
78550;DHT22;68091;52.130;5.570;2023-04-25T01:38:37;5.10;99.90
78550;DHT22;68091;52.130;5.570;2023-04-25T01:41:06;5.00;99.90
78550;DHT22;68091;52.130;5.570;2023-04-25T01:43:31;4.90;99.90
78550;DHT22;68091;52.130;5.570;2023-04-25T01:45:57;4.80;99.90
78550;DHT22;68091;52.130;5.570;2023-04-25T01:48:24;4.80;99.90
78550;DHT22;68091;52.130;5.570;2023-04-25T01:50:50;4.80;99.90
78550;DHT22;68091;52.130;5.570;2023-04-25T01:53:15;4.70;99.90
78550;DHT22;68091;52.130;5.570;2023-04-25T01:55:44;4.90;99.90
78550;DHT22;68091;52.130;5.570;2023-04-25T01:58:10;4.70;99.90
78550;DHT22;68091;52.130;5.570;2023-04-25T02:00:38;4.50;99.90
78550;DHT22;68091;52.130;5.570;2023-04-25T02:03:05;4.50;99.90
78550;DHT22;68091;52.130;5.570;2023-04-25T02:05:37;4.50;99.90
78550;DHT22;68091;52.130;5.570;2023-04-25T02:08:05;4.50;99.90
78550;DHT22;68091;52.130;5.570;2023-04-25T02:10:31;4.50;99.90
78550;DHT22;68091;52.130;5.570;2023-04-25T02:12:57;4.40;99.90
78550;DHT22;68091;52.130;5.570;2023-04-25T02:15:23;4.30;99.90
78550;DHT22;68091;52.130;5.570;2023-04-25T02:17:49;4.30;99.90
78550;DHT22;68091;52.130;5.570;2023-04-25T02:20:15;4.30;99.90
78550;DHT22;68091;52.130;5.570;2023-04-25T02:22:47;4.30;99.90
78550;DHT22;68091;52.130;5.570;2023-04-25T02:25:16;4.20;99.90
78550;DHT22;68091;52.130;5.570;2023-04-25T02:27:42;4.20;99.90
78550;DHT22;68091;52.130;5.570;2023-04-25T02:30:08;4.20;99.90
78550;DHT22;68091;52.130;5.570;2023-04-25T02:32:34;4.10;99.90
78550;DHT22;68091;52.130;5.570;2023-04-25T02:35:01;4.20;99.90
78550;DHT22;68091;52.130;5.570;2023-04-25T02:37:39;4.10;99.90
78550;DHT22;68091;52.130;5.570;2023-04-25T02:40:06;4.10;99.90
78550;DHT22;68091;52.130;5.570;2023-04-25T02:42:50;4.10;99.90
78550;DHT22;68091;52.130;5.570;2023-04-25T02:45:19;4.00;99.90
78550;DHT22;68091;52.130;5.570;2023-04-25T02:47:45;4.00;99.90
78550;DHT22;68091;52.130;5.570;2023-04-25T02:50:10;4.00;99.90
78550;DHT22;68091;52.130;5.570;2023-04-25T02:52:36;4.00;99.90
78550;DHT22;68091;52.130;5.570;2023-04-25T02:55:02;3.90;99.90
78550;DHT22;68091;52.130;5.570;2023-04-25T02:57:28;3.80;99.90
78550;DHT22;68091;52.130;5.570;2023-04-25T02:59:54;3.90;99.90
78550;DHT22;68091;52.130;5.570;2023-04-25T03:02:20;3.90;99.90
78550;DHT22;68091;52.130;5.570;2023-04-25T03:04:45;3.90;99.90
78550;DHT22;68091;52.130;5.570;2023-04-25T03:07:11;4.00;99.90
78550;DHT22;68091;52.130;5.570;2023-04-25T03:09:37;4.00;99.90
78550;DHT22;68091;52.130;5.570;2023-04-25T03:12:03;4.00;99.90
78550;DHT22;68091;52.130;5.570;2023-04-25T03:14:29;4.00;99.90
78550;DHT22;68091;52.130;5.570;2023-04-25T03:16:55;3.90;99.90
78550;DHT22;68091;52.130;5.570;2023-04-25T03:19:20;3.90;99.90
78550;DHT22;68091;52.130;5.570;2023-04-25T03:21:46;3.90;99.90
78550;DHT22;68091;52.130;5.570;2023-04-25T03:24:12;3.80;99.90
78550;DHT22;68091;52.130;5.570;2023-04-25T03:26:38;3.80;99.90
78550;DHT22;68091;52.130;5.570;2023-04-25T03:29:04;3.80;99.90
78550;DHT22;68091;52.130;5.570;2023-04-25T03:31:30;3.80;99.90
78550;DHT22;68091;52.130;5.570;2023-04-25T03:33:56;3.80;99.90
78550;DHT22;68091;52.130;5.570;2023-04-25T03:36:22;3.90;99.90
78550;DHT22;68091;52.130;5.570;2023-04-25T03:38:47;3.90;99.90
78550;DHT22;68091;52.130;5.570;2023-04-25T03:41:16;3.90;99.90
78550;DHT22;68091;52.130;5.570;2023-04-25T03:43:42;3.90;99.90
78550;DHT22;68091;52.130;5.570;2023-04-25T03:46:08;3.90;99.90
78550;DHT22;68091;52.130;5.570;2023-04-25T03:48:36;4.00;99.90
78550;DHT22;68091;52.130;5.570;2023-04-25T03:51:02;3.90;99.90
78550;DHT22;68091;52.130;5.570;2023-04-25T03:53:28;3.90;99.90
78550;DHT22;68091;52.130;5.570;2023-04-25T03:55:54;3.70;99.90
78550;DHT22;68091;52.130;5.570;2023-04-25T03:58:25;4.00;99.90
78550;DHT22;68091;52.130;5.570;2023-04-25T04:00:51;4.00;99.90
78550;DHT22;68091;52.130;5.570;2023-04-25T04:03:17;4.00;99.90
78550;DHT22;68091;52.130;5.570;2023-04-25T04:05:43;4.10;99.90
78550;DHT22;68091;52.130;5.570;2023-04-25T04:08:10;4.10;99.90
78550;DHT22;68091;52.130;5.570;2023-04-25T04:10:36;4.10;99.90
78550;DHT22;68091;52.130;5.570;2023-04-25T04:13:02;4.10;99.90
78550;DHT22;68091;52.130;5.570;2023-04-25T04:15:28;4.10;99.90
78550;DHT22;68091;52.130;5.570;2023-04-25T04:17:54;4.10;99.90
78550;DHT22;68091;52.130;5.570;2023-04-25T04:20:20;4.10;99.90
78550;DHT22;68091;52.130;5.570;2023-04-25T04:22:46;4.10;99.90
78550;DHT22;68091;52.130;5.570;2023-04-25T04:25:15;4.10;99.90
78550;DHT22;68091;52.130;5.570;2023-04-25T04:27:41;4.10;99.90
78550;DHT22;68091;52.130;5.570;2023-04-25T04:30:07;4.20;99.90
78550;DHT22;68091;52.130;5.570;2023-04-25T04:32:33;4.20;99.90
78550;DHT22;68091;52.130;5.570;2023-04-25T04:35:00;4.30;99.90
78550;DHT22;68091;52.130;5.570;2023-04-25T04:37:25;4.50;99.90
78550;DHT22;68091;52.130;5.570;2023-04-25T04:39:51;4.40;99.90
78550;DHT22;68091;52.130;5.570;2023-04-25T04:42:17;4.60;99.90
78550;DHT22;68091;52.130;5.570;2023-04-25T04:44:43;4.60;99.90
78550;DHT22;68091;52.130;5.570;2023-04-25T04:47:10;4.70;99.90
78550;DHT22;68091;52.130;5.570;2023-04-25T04:49:36;4.70;99.90
78550;DHT22;68091;52.130;5.570;2023-04-25T04:52:02;4.80;99.90
78550;DHT22;68091;52.130;5.570;2023-04-25T04:54:27;4.80;99.90
78550;DHT22;68091;52.130;5.570;2023-04-25T04:56:53;4.80;99.90
78550;DHT22;68091;52.130;5.570;2023-04-25T04:59:19;4.90;99.90
78550;DHT22;68091;52.130;5.570;2023-04-25T05:01:45;4.80;99.90
78550;DHT22;68091;52.130;5.570;2023-04-25T05:04:12;4.90;99.90
78550;DHT22;68091;52.130;5.570;2023-04-25T05:06:40;4.90;99.90
78550;DHT22;68091;52.130;5.570;2023-04-25T05:09:06;5.00;99.90
78550;DHT22;68091;52.130;5.570;2023-04-25T05:11:31;5.00;99.90
78550;DHT22;68091;52.130;5.570;2023-04-25T05:13:57;5.00;99.90
78550;DHT22;68091;52.130;5.570;2023-04-25T05:16:23;5.10;99.90
78550;DHT22;68091;52.130;5.570;2023-04-25T05:18:49;5.20;99.90
78550;DHT22;68091;52.130;5.570;2023-04-25T05:21:15;5.20;99.90
78550;DHT22;68091;52.130;5.570;2023-04-25T05:23:41;5.20;99.90
78550;DHT22;68091;52.130;5.570;2023-04-25T05:26:09;5.20;99.90
78550;DHT22;68091;52.130;5.570;2023-04-25T05:28:42;5.20;99.90
78550;DHT22;68091;52.130;5.570;2023-04-25T05:31:10;5.30;99.90
78550;DHT22;68091;52.130;5.570;2023-04-25T05:33:36;5.40;99.90
78550;DHT22;68091;52.130;5.570;2023-04-25T05:36:01;5.40;99.90
78550;DHT22;68091;52.130;5.570;2023-04-25T05:38:33;5.50;99.90
78550;DHT22;68091;52.130;5.570;2023-04-25T05:40:59;5.60;99.90
78550;DHT22;68091;52.130;5.570;2023-04-25T05:43:25;5.50;99.90
78550;DHT22;68091;52.130;5.570;2023-04-25T05:45:51;5.60;99.90
78550;DHT22;68091;52.130;5.570;2023-04-25T05:48:16;5.60;99.90
78550;DHT22;68091;52.130;5.570;2023-04-25T05:50:42;5.70;99.90
78550;DHT22;68091;52.130;5.570;2023-04-25T05:53:08;5.80;99.90
78550;DHT22;68091;52.130;5.570;2023-04-25T05:55:37;5.90;99.90
78550;DHT22;68091;52.130;5.570;2023-04-25T05:58:05;6.10;99.90
78550;DHT22;68091;52.130;5.570;2023-04-25T06:00:34;6.10;99.90
78550;DHT22;68091;52.130;5.570;2023-04-25T06:03:00;6.20;99.90
78550;DHT22;68091;52.130;5.570;2023-04-25T06:05:26;6.30;99.90
78550;DHT22;68091;52.130;5.570;2023-04-25T06:07:52;6.40;99.90
78550;DHT22;68091;52.130;5.570;2023-04-25T06:10:21;6.40;99.90
78550;DHT22;68091;52.130;5.570;2023-04-25T06:12:48;6.30;99.90
78550;DHT22;68091;52.130;5.570;2023-04-25T06:15:14;6.40;99.90
78550;DHT22;68091;52.130;5.570;2023-04-25T06:17:41;6.40;99.90
78550;DHT22;68091;52.130;5.570;2023-04-25T06:20:07;6.40;99.90
78550;DHT22;68091;52.130;5.570;2023-04-25T06:22:33;6.40;99.90
78550;DHT22;68091;52.130;5.570;2023-04-25T06:24:59;6.30;99.90
78550;DHT22;68091;52.130;5.570;2023-04-25T06:27:25;6.30;99.90
78550;DHT22;68091;52.130;5.570;2023-04-25T06:29:51;6.20;99.90
78550;DHT22;68091;52.130;5.570;2023-04-25T06:32:20;6.40;99.90
78550;DHT22;68091;52.130;5.570;2023-04-25T06:34:46;6.60;99.90
78550;DHT22;68091;52.130;5.570;2023-04-25T06:37:11;6.90;99.90
78550;DHT22;68091;52.130;5.570;2023-04-25T06:39:37;7.50;99.90
78550;DHT22;68091;52.130;5.570;2023-04-25T06:42:03;7.60;99.90
78550;DHT22;68091;52.130;5.570;2023-04-25T06:44:29;7.60;99.90
78550;DHT22;68091;52.130;5.570;2023-04-25T06:46:55;8.20;99.90
78550;DHT22;68091;52.130;5.570;2023-04-25T06:49:21;8.50;99.90
78550;DHT22;68091;52.130;5.570;2023-04-25T06:51:48;8.40;99.90
78550;DHT22;68091;52.130;5.570;2023-04-25T06:54:13;8.50;99.90
78550;DHT22;68091;52.130;5.570;2023-04-25T06:56:39;8.40;99.90
78550;DHT22;68091;52.130;5.570;2023-04-25T06:59:05;8.40;99.90
78550;DHT22;68091;52.130;5.570;2023-04-25T07:01:31;8.00;99.90
78550;DHT22;68091;52.130;5.570;2023-04-25T07:03:56;7.90;99.90
78550;DHT22;68091;52.130;5.570;2023-04-25T07:06:22;8.00;99.90
78550;DHT22;68091;52.130;5.570;2023-04-25T07:08:48;8.00;99.90
78550;DHT22;68091;52.130;5.570;2023-04-25T07:11:14;8.20;99.90
78550;DHT22;68091;52.130;5.570;2023-04-25T07:13:40;8.20;99.90
78550;DHT22;68091;52.130;5.570;2023-04-25T07:16:05;8.00;99.90
78550;DHT22;68091;52.130;5.570;2023-04-25T07:18:31;8.00;99.90
78550;DHT22;68091;52.130;5.570;2023-04-25T07:20:57;8.00;99.90
78550;DHT22;68091;52.130;5.570;2023-04-25T07:23:23;8.00;99.90
78550;DHT22;68091;52.130;5.570;2023-04-25T07:25:49;8.00;99.90
78550;DHT22;68091;52.130;5.570;2023-04-25T07:28:15;8.10;99.90
78550;DHT22;68091;52.130;5.570;2023-04-25T07:30:41;8.50;99.90
78550;DHT22;68091;52.130;5.570;2023-04-25T07:33:06;8.40;99.90
78550;DHT22;68091;52.130;5.570;2023-04-25T07:35:32;8.70;99.90
78550;DHT22;68091;52.130;5.570;2023-04-25T07:37:58;9.00;99.90
78550;DHT22;68091;52.130;5.570;2023-04-25T07:40:24;8.90;99.90
78550;DHT22;68091;52.130;5.570;2023-04-25T07:42:50;9.00;99.90
78550;DHT22;68091;52.130;5.570;2023-04-25T07:45:16;9.00;99.90
78550;DHT22;68091;52.130;5.570;2023-04-25T07:47:42;9.00;99.90
78550;DHT22;68091;52.130;5.570;2023-04-25T07:50:08;9.20;99.90
78550;DHT22;68091;52.130;5.570;2023-04-25T07:52:34;9.30;99.90
78550;DHT22;68091;52.130;5.570;2023-04-25T07:55:00;9.00;99.90
78550;DHT22;68091;52.130;5.570;2023-04-25T07:57:26;8.80;99.90
78550;DHT22;68091;52.130;5.570;2023-04-25T07:59:52;9.00;99.90
78550;DHT22;68091;52.130;5.570;2023-04-25T08:02:17;9.40;99.90
78550;DHT22;68091;52.130;5.570;2023-04-25T08:04:43;9.40;99.90
78550;DHT22;68091;52.130;5.570;2023-04-25T08:07:09;9.20;99.90
78550;DHT22;68091;52.130;5.570;2023-04-25T08:09:35;9.00;99.90
78550;DHT22;68091;52.130;5.570;2023-04-25T08:12:02;8.90;99.90
78550;DHT22;68091;52.130;5.570;2023-04-25T08:14:29;9.50;99.90
78550;DHT22;68091;52.130;5.570;2023-04-25T08:17:01;9.60;99.90
78550;DHT22;68091;52.130;5.570;2023-04-25T08:19:29;9.40;99.90
78550;DHT22;68091;52.130;5.570;2023-04-25T08:21:54;9.10;99.90
78550;DHT22;68091;52.130;5.570;2023-04-25T08:24:22;9.20;99.90
78550;DHT22;68091;52.130;5.570;2023-04-25T08:26:51;9.00;99.90
78550;DHT22;68091;52.130;5.570;2023-04-25T08:29:17;9.00;99.90
78550;DHT22;68091;52.130;5.570;2023-04-25T08:31:43;9.00;99.90
78550;DHT22;68091;52.130;5.570;2023-04-25T08:34:09;8.70;99.90
78550;DHT22;68091;52.130;5.570;2023-04-25T08:36:35;8.60;99.90
78550;DHT22;68091;52.130;5.570;2023-04-25T08:39:01;8.50;99.90
78550;DHT22;68091;52.130;5.570;2023-04-25T08:41:27;8.70;99.90
78550;DHT22;68091;52.130;5.570;2023-04-25T08:43:53;8.80;99.90
78550;DHT22;68091;52.130;5.570;2023-04-25T08:46:21;8.90;99.90
78550;DHT22;68091;52.130;5.570;2023-04-25T08:48:49;9.10;99.90
78550;DHT22;68091;52.130;5.570;2023-04-25T08:51:23;9.10;99.90
78550;DHT22;68091;52.130;5.570;2023-04-25T08:53:53;9.00;99.90
78550;DHT22;68091;52.130;5.570;2023-04-25T08:56:19;9.30;99.90
78550;DHT22;68091;52.130;5.570;2023-04-25T08:58:48;9.20;99.10
78550;DHT22;68091;52.130;5.570;2023-04-25T09:01:16;9.30;98.20
78550;DHT22;68091;52.130;5.570;2023-04-25T09:03:43;9.30;98.90
78550;DHT22;68091;52.130;5.570;2023-04-25T09:06:10;9.40;98.60
78550;DHT22;68091;52.130;5.570;2023-04-25T09:08:37;9.10;98.10
78550;DHT22;68091;52.130;5.570;2023-04-25T09:11:03;9.10;98.30
78550;DHT22;68091;52.130;5.570;2023-04-25T09:13:29;9.30;98.60
78550;DHT22;68091;52.130;5.570;2023-04-25T09:15:57;9.60;97.30
78550;DHT22;68091;52.130;5.570;2023-04-25T09:18:27;10.00;98.40
78550;DHT22;68091;52.130;5.570;2023-04-25T09:20:54;10.20;98.80
78550;DHT22;68091;52.130;5.570;2023-04-25T09:23:21;10.40;98.30
78550;DHT22;68091;52.130;5.570;2023-04-25T09:25:49;10.60;96.80
78550;DHT22;68091;52.130;5.570;2023-04-25T09:28:25;10.80;96.70
78550;DHT22;68091;52.130;5.570;2023-04-25T09:30:57;11.00;95.70
78550;DHT22;68091;52.130;5.570;2023-04-25T09:33:33;10.50;97.20
78550;DHT22;68091;52.130;5.570;2023-04-25T09:36:10;9.90;96.80
78550;DHT22;68091;52.130;5.570;2023-04-25T09:38:43;9.90;95.80
78550;DHT22;68091;52.130;5.570;2023-04-25T09:41:10;10.00;96.10
78550;DHT22;68091;52.130;5.570;2023-04-25T09:43:37;10.60;95.50
78550;DHT22;68091;52.130;5.570;2023-04-25T09:46:10;10.90;94.60
78550;DHT22;68091;52.130;5.570;2023-04-25T09:48:37;11.30;93.70
78550;DHT22;68091;52.130;5.570;2023-04-25T09:51:07;11.10;92.90
78550;DHT22;68091;52.130;5.570;2023-04-25T09:53:37;10.60;95.80
78550;DHT22;68091;52.130;5.570;2023-04-25T09:56:05;9.90;98.00
78550;DHT22;68091;52.130;5.570;2023-04-25T09:58:33;9.70;98.70
78550;DHT22;68091;52.130;5.570;2023-04-25T10:01:10;9.40;99.20
78550;DHT22;68091;52.130;5.570;2023-04-25T10:03:37;9.20;99.20
78550;DHT22;68091;52.130;5.570;2023-04-25T10:06:18;9.10;98.90
78550;DHT22;68091;52.130;5.570;2023-04-25T10:08:45;9.30;98.50
78550;DHT22;68091;52.130;5.570;2023-04-25T10:11:11;9.40;97.50
78550;DHT22;68091;52.130;5.570;2023-04-25T10:13:40;9.80;97.10
78550;DHT22;68091;52.130;5.570;2023-04-25T10:16:09;9.80;97.10
78550;DHT22;68091;52.130;5.570;2023-04-25T10:18:35;9.90;97.00
78550;DHT22;68091;52.130;5.570;2023-04-25T10:21:04;10.20;96.60
78550;DHT22;68091;52.130;5.570;2023-04-25T10:23:32;10.20;97.30
78550;DHT22;68091;52.130;5.570;2023-04-25T10:26:00;10.30;95.80
78550;DHT22;68091;52.130;5.570;2023-04-25T10:28:26;10.30;96.10
78550;DHT22;68091;52.130;5.570;2023-04-25T10:31:01;10.30;96.70
78550;DHT22;68091;52.130;5.570;2023-04-25T10:33:38;10.00;96.30
78550;DHT22;68091;52.130;5.570;2023-04-25T10:36:17;10.30;96.20
78550;DHT22;68091;52.130;5.570;2023-04-25T10:38:43;10.50;95.50
78550;DHT22;68091;52.130;5.570;2023-04-25T10:41:11;10.50;96.60
78550;DHT22;68091;52.130;5.570;2023-04-25T10:43:41;10.40;96.90
78550;DHT22;68091;52.130;5.570;2023-04-25T10:46:24;10.70;95.30
78550;DHT22;68091;52.130;5.570;2023-04-25T10:48:52;10.90;95.60
78550;DHT22;68091;52.130;5.570;2023-04-25T10:51:40;11.10;93.30
78550;DHT22;68091;52.130;5.570;2023-04-25T10:54:08;10.90;94.50
78550;DHT22;68091;52.130;5.570;2023-04-25T10:56:38;11.10;94.20
78550;DHT22;68091;52.130;5.570;2023-04-25T10:59:18;11.10;93.10
78550;DHT22;68091;52.130;5.570;2023-04-25T11:01:49;11.00;94.40
78550;DHT22;68091;52.130;5.570;2023-04-25T11:04:24;10.90;94.90
78550;DHT22;68091;52.130;5.570;2023-04-25T11:09:33;11.10;94.60
78550;DHT22;68091;52.130;5.570;2023-04-25T11:11:59;11.00;93.70
78550;DHT22;68091;52.130;5.570;2023-04-25T11:14:26;10.80;94.30
78550;DHT22;68091;52.130;5.570;2023-04-25T11:16:59;11.10;92.80
78550;DHT22;68091;52.130;5.570;2023-04-25T11:19:25;11.30;93.30
78550;DHT22;68091;52.130;5.570;2023-04-25T11:21:55;11.60;92.80
78550;DHT22;68091;52.130;5.570;2023-04-25T11:24:29;11.70;92.20
78550;DHT22;68091;52.130;5.570;2023-04-25T11:26:56;11.50;93.70
78550;DHT22;68091;52.130;5.570;2023-04-25T11:29:23;11.10;94.90
78550;DHT22;68091;52.130;5.570;2023-04-25T11:31:48;10.30;97.40
78550;DHT22;68091;52.130;5.570;2023-04-25T11:34:18;10.00;99.30
78550;DHT22;68091;52.130;5.570;2023-04-25T11:36:45;9.30;99.90
78550;DHT22;68091;52.130;5.570;2023-04-25T11:39:11;8.90;99.90
78550;DHT22;68091;52.130;5.570;2023-04-25T11:41:38;8.90;99.90
78550;DHT22;68091;52.130;5.570;2023-04-25T11:44:04;8.90;99.90
78550;DHT22;68091;52.130;5.570;2023-04-25T11:46:30;8.80;99.90
78550;DHT22;68091;52.130;5.570;2023-04-25T11:48:59;8.60;99.90
78550;DHT22;68091;52.130;5.570;2023-04-25T11:51:25;8.80;99.90
78550;DHT22;68091;52.130;5.570;2023-04-25T11:53:51;9.00;99.90
78550;DHT22;68091;52.130;5.570;2023-04-25T11:56:17;9.20;98.40
78550;DHT22;68091;52.130;5.570;2023-04-25T11:58:57;9.20;98.60
78550;DHT22;68091;52.130;5.570;2023-04-25T12:01:30;9.30;98.00
78550;DHT22;68091;52.130;5.570;2023-04-25T12:04:17;9.70;97.00
78550;DHT22;68091;52.130;5.570;2023-04-25T12:06:44;9.80;96.80
78550;DHT22;68091;52.130;5.570;2023-04-25T12:09:13;10.20;96.50
78550;DHT22;68091;52.130;5.570;2023-04-25T12:11:54;10.70;95.40
78550;DHT22;68091;52.130;5.570;2023-04-25T12:14:26;10.70;94.10
78550;DHT22;68091;52.130;5.570;2023-04-25T12:16:54;10.70;95.00
78550;DHT22;68091;52.130;5.570;2023-04-25T12:19:21;10.60;95.10
78550;DHT22;68091;52.130;5.570;2023-04-25T12:21:48;10.80;95.60
78550;DHT22;68091;52.130;5.570;2023-04-25T12:24:17;10.80;95.50
78550;DHT22;68091;52.130;5.570;2023-04-25T12:27:01;10.80;95.60
78550;DHT22;68091;52.130;5.570;2023-04-25T12:29:30;11.50;94.90
78550;DHT22;68091;52.130;5.570;2023-04-25T12:31:56;11.50;95.10
78550;DHT22;68091;52.130;5.570;2023-04-25T12:34:23;11.10;94.60
78550;DHT22;68091;52.130;5.570;2023-04-25T12:36:49;10.60;92.90
78550;DHT22;68091;52.130;5.570;2023-04-25T12:39:17;10.20;93.30
78550;DHT22;68091;52.130;5.570;2023-04-25T12:41:43;10.70;92.80
78550;DHT22;68091;52.130;5.570;2023-04-25T12:44:10;11.10;92.40
78550;DHT22;68091;52.130;5.570;2023-04-25T12:46:36;11.60;93.90
78550;DHT22;68091;52.130;5.570;2023-04-25T12:49:03;11.80;96.10
78550;DHT22;68091;52.130;5.570;2023-04-25T12:51:29;12.10;95.20
78550;DHT22;68091;52.130;5.570;2023-04-25T12:53:58;12.00;94.00
78550;DHT22;68091;52.130;5.570;2023-04-25T12:56:24;11.70;93.70
78550;DHT22;68091;52.130;5.570;2023-04-25T12:58:54;11.70;92.50
78550;DHT22;68091;52.130;5.570;2023-04-25T13:01:20;12.00;92.00
78550;DHT22;68091;52.130;5.570;2023-04-25T13:03:50;12.00;91.90
78550;DHT22;68091;52.130;5.570;2023-04-25T13:06:17;12.40;91.40
78550;DHT22;68091;52.130;5.570;2023-04-25T13:08:43;12.70;90.20
78550;DHT22;68091;52.130;5.570;2023-04-25T13:11:09;12.70;89.30
78550;DHT22;68091;52.130;5.570;2023-04-25T13:13:38;12.40;87.20
78550;DHT22;68091;52.130;5.570;2023-04-25T13:16:05;12.00;87.60
78550;DHT22;68091;52.130;5.570;2023-04-25T13:18:32;11.90;88.50
78550;DHT22;68091;52.130;5.570;2023-04-25T13:20:59;12.30;88.50
78550;DHT22;68091;52.130;5.570;2023-04-25T13:23:27;12.30;89.40
78550;DHT22;68091;52.130;5.570;2023-04-25T13:25:53;12.50;90.00
78550;DHT22;68091;52.130;5.570;2023-04-25T13:28:19;13.00;88.80
78550;DHT22;68091;52.130;5.570;2023-04-25T13:30:46;13.20;88.50
78550;DHT22;68091;52.130;5.570;2023-04-25T13:33:13;12.90;90.00
78550;DHT22;68091;52.130;5.570;2023-04-25T13:35:40;12.00;90.60
78550;DHT22;68091;52.130;5.570;2023-04-25T13:38:05;11.30;93.30
78550;DHT22;68091;52.130;5.570;2023-04-25T13:40:31;11.20;93.50
78550;DHT22;68091;52.130;5.570;2023-04-25T13:42:57;11.00;94.40
78550;DHT22;68091;52.130;5.570;2023-04-25T13:45:23;11.10;95.10
78550;DHT22;68091;52.130;5.570;2023-04-25T13:47:52;11.30;94.30
78550;DHT22;68091;52.130;5.570;2023-04-25T13:50:18;11.60;93.80
78550;DHT22;68091;52.130;5.570;2023-04-25T13:52:46;12.10;93.70
78550;DHT22;68091;52.130;5.570;2023-04-25T13:55:12;12.80;90.50
78550;DHT22;68091;52.130;5.570;2023-04-25T13:57:38;13.30;87.20
78550;DHT22;68091;52.130;5.570;2023-04-25T14:00:05;13.80;86.50
78550;DHT22;68091;52.130;5.570;2023-04-25T14:02:38;14.30;84.10
78550;DHT22;68091;52.130;5.570;2023-04-25T14:05:04;14.30;82.10
78550;DHT22;68091;52.130;5.570;2023-04-25T14:07:30;14.50;81.10
78550;DHT22;68091;52.130;5.570;2023-04-25T14:09:56;13.70;79.50
78550;DHT22;68091;52.130;5.570;2023-04-25T14:12:23;12.60;85.70
78550;DHT22;68091;52.130;5.570;2023-04-25T14:14:49;12.00;88.90
78550;DHT22;68091;52.130;5.570;2023-04-25T14:17:14;11.80;90.20
78550;DHT22;68091;52.130;5.570;2023-04-25T14:19:40;11.70;90.70
78550;DHT22;68091;52.130;5.570;2023-04-25T14:22:11;11.30;91.10
78550;DHT22;68091;52.130;5.570;2023-04-25T14:24:36;11.10;90.60
78550;DHT22;68091;52.130;5.570;2023-04-25T14:27:03;11.10;90.60
78550;DHT22;68091;52.130;5.570;2023-04-25T14:29:29;11.80;90.20
78550;DHT22;68091;52.130;5.570;2023-04-25T14:31:55;13.00;87.90
78550;DHT22;68091;52.130;5.570;2023-04-25T14:34:23;14.40;84.50
78550;DHT22;68091;52.130;5.570;2023-04-25T14:36:51;15.30;76.10
78550;DHT22;68091;52.130;5.570;2023-04-25T14:39:18;14.10;80.30
78550;DHT22;68091;52.130;5.570;2023-04-25T14:41:44;12.90;83.80
78550;DHT22;68091;52.130;5.570;2023-04-25T14:44:09;12.00;85.50
78550;DHT22;68091;52.130;5.570;2023-04-25T14:46:53;11.50;88.50
78550;DHT22;68091;52.130;5.570;2023-04-25T14:49:19;12.50;90.20
78550;DHT22;68091;52.130;5.570;2023-04-25T14:51:44;14.00;85.90
78550;DHT22;68091;52.130;5.570;2023-04-25T14:54:10;15.00;82.50
78550;DHT22;68091;52.130;5.570;2023-04-25T14:56:37;14.90;83.20
78550;DHT22;68091;52.130;5.570;2023-04-25T14:59:03;15.30;82.10
78550;DHT22;68091;52.130;5.570;2023-04-25T15:01:28;14.80;78.70
78550;DHT22;68091;52.130;5.570;2023-04-25T15:03:54;14.60;82.90
78550;DHT22;68091;52.130;5.570;2023-04-25T15:06:20;14.80;82.60
78550;DHT22;68091;52.130;5.570;2023-04-25T15:08:45;14.00;83.40
78550;DHT22;68091;52.130;5.570;2023-04-25T15:11:11;13.00;89.20
78550;DHT22;68091;52.130;5.570;2023-04-25T15:13:37;12.50;88.60
78550;DHT22;68091;52.130;5.570;2023-04-25T15:16:03;12.30;89.00
78550;DHT22;68091;52.130;5.570;2023-04-25T15:18:29;13.30;87.40
78550;DHT22;68091;52.130;5.570;2023-04-25T15:20:55;13.90;82.40
78550;DHT22;68091;52.130;5.570;2023-04-25T15:23:21;14.80;81.50
78550;DHT22;68091;52.130;5.570;2023-04-25T15:25:46;16.20;79.00
78550;DHT22;68091;52.130;5.570;2023-04-25T15:28:12;17.60;70.40
78550;DHT22;68091;52.130;5.570;2023-04-25T15:30:42;17.90;65.60
78550;DHT22;68091;52.130;5.570;2023-04-25T15:33:11;17.60;62.30
78550;DHT22;68091;52.130;5.570;2023-04-25T15:35:37;16.70;63.90
78550;DHT22;68091;52.130;5.570;2023-04-25T15:38:02;15.00;71.00
78550;DHT22;68091;52.130;5.570;2023-04-25T15:40:28;13.90;77.90
78550;DHT22;68091;52.130;5.570;2023-04-25T15:42:57;13.10;82.60
78550;DHT22;68091;52.130;5.570;2023-04-25T15:45:24;12.70;83.40
78550;DHT22;68091;52.130;5.570;2023-04-25T15:47:56;12.10;83.70